sensor_id;sensor_type;location;lat;lon;timestamp;temperature;humidity
22908;DHT22;11620;50.050;8.690;2022-11-21T00:00:03;3.80;99.90
22908;DHT22;11620;50.050;8.690;2022-11-21T00:02:50;3.80;99.90
22908;DHT22;11620;50.050;8.690;2022-11-21T00:05:42;3.80;99.90
22908;DHT22;11620;50.050;8.690;2022-11-21T00:08:29;3.80;99.90
22908;DHT22;11620;50.050;8.690;2022-11-21T00:11:15;3.80;99.90
22908;DHT22;11620;50.050;8.690;2022-11-21T00:14:02;3.70;99.90
22908;DHT22;11620;50.050;8.690;2022-11-21T00:16:48;3.80;99.90
22908;DHT22;11620;50.050;8.690;2022-11-21T00:19:34;3.80;99.90
22908;DHT22;11620;50.050;8.690;2022-11-21T00:22:21;3.90;99.90
22908;DHT22;11620;50.050;8.690;2022-11-21T00:25:07;3.80;99.90
22908;DHT22;11620;50.050;8.690;2022-11-21T00:27:54;3.90;99.90
22908;DHT22;11620;50.050;8.690;2022-11-21T00:30:40;3.80;99.90
22908;DHT22;11620;50.050;8.690;2022-11-21T00:33:26;3.90;99.90
22908;DHT22;11620;50.050;8.690;2022-11-21T00:36:13;3.80;99.90
22908;DHT22;11620;50.050;8.690;2022-11-21T00:38:59;3.90;99.90
22908;DHT22;11620;50.050;8.690;2022-11-21T00:41:45;3.90;99.90
22908;DHT22;11620;50.050;8.690;2022-11-21T00:44:32;3.80;99.90
22908;DHT22;11620;50.050;8.690;2022-11-21T00:47:18;3.80;99.90
22908;DHT22;11620;50.050;8.690;2022-11-21T00:50:05;3.80;99.90
22908;DHT22;11620;50.050;8.690;2022-11-21T00:52:55;3.80;99.90
22908;DHT22;11620;50.050;8.690;2022-11-21T00:55:41;3.70;99.90
22908;DHT22;11620;50.050;8.690;2022-11-21T00:58:28;3.80;99.90
22908;DHT22;11620;50.050;8.690;2022-11-21T01:01:14;3.80;99.90
22908;DHT22;11620;50.050;8.690;2022-11-21T01:04:00;3.90;99.90
22908;DHT22;11620;50.050;8.690;2022-11-21T01:06:47;3.80;99.90
22908;DHT22;11620;50.050;8.690;2022-11-21T01:09:33;3.90;99.90
22908;DHT22;11620;50.050;8.690;2022-11-21T01:12:19;3.90;99.90
22908;DHT22;11620;50.050;8.690;2022-11-21T01:15:06;3.80;99.90
22908;DHT22;11620;50.050;8.690;2022-11-21T01:17:53;3.80;99.90
22908;DHT22;11620;50.050;8.690;2022-11-21T01:20:39;3.90;99.90
22908;DHT22;11620;50.050;8.690;2022-11-21T01:23:26;3.90;99.90
22908;DHT22;11620;50.050;8.690;2022-11-21T01:26:16;3.90;99.90
22908;DHT22;11620;50.050;8.690;2022-11-21T01:29:03;4.00;99.90
22908;DHT22;11620;50.050;8.690;2022-11-21T01:31:49;4.00;99.90
22908;DHT22;11620;50.050;8.690;2022-11-21T01:34:35;3.90;99.90
22908;DHT22;11620;50.050;8.690;2022-11-21T01:37:22;4.00;99.90
22908;DHT22;11620;50.050;8.690;2022-11-21T01:40:09;4.00;99.90
22908;DHT22;11620;50.050;8.690;2022-11-21T01:43:03;3.90;99.90
22908;DHT22;11620;50.050;8.690;2022-11-21T01:52:14;4.00;99.90
22908;DHT22;11620;50.050;8.690;2022-11-21T01:55:06;4.10;99.90
22908;DHT22;11620;50.050;8.690;2022-11-21T01:57:54;4.10;99.90
22908;DHT22;11620;50.050;8.690;2022-11-21T02:00:42;4.10;99.90
22908;DHT22;11620;50.050;8.690;2022-11-21T02:03:33;4.10;99.90
22908;DHT22;11620;50.050;8.690;2022-11-21T02:06:23;4.10;99.90
22908;DHT22;11620;50.050;8.690;2022-11-21T02:09:10;4.10;99.90
22908;DHT22;11620;50.050;8.690;2022-11-21T02:12:04;4.10;99.90
22908;DHT22;11620;50.050;8.690;2022-11-21T02:14:52;4.10;99.90
22908;DHT22;11620;50.050;8.690;2022-11-21T02:17:38;4.10;99.90
22908;DHT22;11620;50.050;8.690;2022-11-21T02:20:26;4.10;99.90
22908;DHT22;11620;50.050;8.690;2022-11-21T02:26:02;4.20;99.90
22908;DHT22;11620;50.050;8.690;2022-11-21T02:28:48;4.10;99.90
22908;DHT22;11620;50.050;8.690;2022-11-21T02:31:35;4.00;99.90
22908;DHT22;11620;50.050;8.690;2022-11-21T02:34:21;4.10;99.90
22908;DHT22;11620;50.050;8.690;2022-11-21T02:37:08;4.00;99.90
22908;DHT22;11620;50.050;8.690;2022-11-21T02:39:57;3.90;99.90
22908;DHT22;11620;50.050;8.690;2022-11-21T02:45:49;3.90;99.90
22908;DHT22;11620;50.050;8.690;2022-11-21T02:48:36;4.10;99.90
22908;DHT22;11620;50.050;8.690;2022-11-21T02:51:23;4.00;99.90
22908;DHT22;11620;50.050;8.690;2022-11-21T02:54:09;4.00;99.90
22908;DHT22;11620;50.050;8.690;2022-11-21T02:56:55;4.00;99.90
22908;DHT22;11620;50.050;8.690;2022-11-21T02:59:42;4.00;99.90
22908;DHT22;11620;50.050;8.690;2022-11-21T03:02:29;4.10;99.90
22908;DHT22;11620;50.050;8.690;2022-11-21T03:05:16;4.10;99.90
22908;DHT22;11620;50.050;8.690;2022-11-21T03:08:03;4.10;99.90
22908;DHT22;11620;50.050;8.690;2022-11-21T03:10:50;4.10;99.90
22908;DHT22;11620;50.050;8.690;2022-11-21T03:13:36;4.10;99.90
22908;DHT22;11620;50.050;8.690;2022-11-21T03:16:22;4.20;99.90
22908;DHT22;11620;50.050;8.690;2022-11-21T03:19:09;4.20;99.90
22908;DHT22;11620;50.050;8.690;2022-11-21T03:21:55;4.20;99.90
22908;DHT22;11620;50.050;8.690;2022-11-21T03:24:42;4.20;99.90
22908;DHT22;11620;50.050;8.690;2022-11-21T03:27:28;4.10;99.90
22908;DHT22;11620;50.050;8.690;2022-11-21T03:30:14;4.00;99.90
22908;DHT22;11620;50.050;8.690;2022-11-21T03:33:01;3.90;99.90
22908;DHT22;11620;50.050;8.690;2022-11-21T03:35:47;3.90;99.90
22908;DHT22;11620;50.050;8.690;2022-11-21T03:38:34;4.00;99.90
22908;DHT22;11620;50.050;8.690;2022-11-21T03:41:20;3.90;99.90
22908;DHT22;11620;50.050;8.690;2022-11-21T03:44:15;3.90;99.90
22908;DHT22;11620;50.050;8.690;2022-11-21T03:47:02;3.80;99.90
22908;DHT22;11620;50.050;8.690;2022-11-21T03:49:48;3.90;99.90
22908;DHT22;11620;50.050;8.690;2022-11-21T03:52:34;3.90;99.90
22908;DHT22;11620;50.050;8.690;2022-11-21T03:55:21;3.90;99.90
22908;DHT22;11620;50.050;8.690;2022-11-21T03:58:07;3.90;99.90
22908;DHT22;11620;50.050;8.690;2022-11-21T04:00:54;3.80;99.90
22908;DHT22;11620;50.050;8.690;2022-11-21T04:03:41;3.80;99.90
22908;DHT22;11620;50.050;8.690;2022-11-21T04:06:28;3.70;99.90
22908;DHT22;11620;50.050;8.690;2022-11-21T04:09:16;3.70;99.90
22908;DHT22;11620;50.050;8.690;2022-11-21T04:12:02;3.70;99.90
22908;DHT22;11620;50.050;8.690;2022-11-21T04:14:49;3.70;99.90
22908;DHT22;11620;50.050;8.690;2022-11-21T04:17:37;3.70;99.90
22908;DHT22;11620;50.050;8.690;2022-11-21T04:20:24;3.80;99.90
22908;DHT22;11620;50.050;8.690;2022-11-21T04:23:10;3.80;99.90
22908;DHT22;11620;50.050;8.690;2022-11-21T04:25:57;3.80;99.90
22908;DHT22;11620;50.050;8.690;2022-11-21T04:28:43;3.80;99.90
22908;DHT22;11620;50.050;8.690;2022-11-21T04:31:29;3.90;99.90
22908;DHT22;11620;50.050;8.690;2022-11-21T04:34:16;3.90;99.90
22908;DHT22;11620;50.050;8.690;2022-11-21T04:37:02;3.90;99.90
22908;DHT22;11620;50.050;8.690;2022-11-21T04:39:48;3.90;99.90
22908;DHT22;11620;50.050;8.690;2022-11-21T04:42:35;3.90;99.90
22908;DHT22;11620;50.050;8.690;2022-11-21T04:45:21;3.90;99.90
22908;DHT22;11620;50.050;8.690;2022-11-21T04:48:07;3.90;99.90
22908;DHT22;11620;50.050;8.690;2022-11-21T04:50:54;4.00;99.90
22908;DHT22;11620;50.050;8.690;2022-11-21T04:53:40;4.00;99.90
22908;DHT22;11620;50.050;8.690;2022-11-21T04:56:26;4.00;99.90
22908;DHT22;11620;50.050;8.690;2022-11-21T04:59:13;4.10;99.90
22908;DHT22;11620;50.050;8.690;2022-11-21T05:01:59;4.10;99.90
22908;DHT22;11620;50.050;8.690;2022-11-21T05:04:47;4.10;99.90
22908;DHT22;11620;50.050;8.690;2022-11-21T05:07:33;4.10;99.90
22908;DHT22;11620;50.050;8.690;2022-11-21T05:10:20;4.10;99.90
22908;DHT22;11620;50.050;8.690;2022-11-21T05:13:08;4.20;99.90
22908;DHT22;11620;50.050;8.690;2022-11-21T05:16:07;4.30;99.90
22908;DHT22;11620;50.050;8.690;2022-11-21T05:18:53;4.20;99.90
22908;DHT22;11620;50.050;8.690;2022-11-21T05:21:39;4.10;99.90
22908;DHT22;11620;50.050;8.690;2022-11-21T05:24:26;4.20;99.90
22908;DHT22;11620;50.050;8.690;2022-11-21T05:27:12;4.20;99.90
22908;DHT22;11620;50.050;8.690;2022-11-21T05:29:58;4.20;99.90
22908;DHT22;11620;50.050;8.690;2022-11-21T05:32:44;4.20;99.90
22908;DHT22;11620;50.050;8.690;2022-11-21T05:35:31;4.20;99.90
22908;DHT22;11620;50.050;8.690;2022-11-21T05:38:17;4.20;99.90
22908;DHT22;11620;50.050;8.690;2022-11-21T05:41:03;4.20;99.90
22908;DHT22;11620;50.050;8.690;2022-11-21T05:43:48;4.20;99.90
22908;DHT22;11620;50.050;8.690;2022-11-21T05:46:33;4.20;99.90
22908;DHT22;11620;50.050;8.690;2022-11-21T05:49:17;4.20;99.90
22908;DHT22;11620;50.050;8.690;2022-11-21T05:52:02;4.10;99.90
22908;DHT22;11620;50.050;8.690;2022-11-21T05:54:46;4.10;99.90
22908;DHT22;11620;50.050;8.690;2022-11-21T05:57:31;4.00;99.90
22908;DHT22;11620;50.050;8.690;2022-11-21T06:00:16;4.10;99.90
22908;DHT22;11620;50.050;8.690;2022-11-21T06:03:01;4.00;99.90
22908;DHT22;11620;50.050;8.690;2022-11-21T06:06:14;4.00;99.90
22908;DHT22;11620;50.050;8.690;2022-11-21T06:08:59;4.10;99.90
22908;DHT22;11620;50.050;8.690;2022-11-21T06:11:44;4.10;99.90
22908;DHT22;11620;50.050;8.690;2022-11-21T06:14:28;4.20;99.90
22908;DHT22;11620;50.050;8.690;2022-11-21T06:17:13;4.10;99.90
22908;DHT22;11620;50.050;8.690;2022-11-21T06:19:57;4.20;99.90
22908;DHT22;11620;50.050;8.690;2022-11-21T06:22:42;4.30;99.90
22908;DHT22;11620;50.050;8.690;2022-11-21T06:25:26;4.40;99.90
22908;DHT22;11620;50.050;8.690;2022-11-21T06:28:11;4.40;99.90
22908;DHT22;11620;50.050;8.690;2022-11-21T06:30:56;4.30;99.90
22908;DHT22;11620;50.050;8.690;2022-11-21T06:33:42;4.20;99.90
22908;DHT22;11620;50.050;8.690;2022-11-21T06:36:27;4.10;99.90
22908;DHT22;11620;50.050;8.690;2022-11-21T06:39:11;4.10;99.90
22908;DHT22;11620;50.050;8.690;2022-11-21T06:41:56;4.00;99.90
22908;DHT22;11620;50.050;8.690;2022-11-21T06:44:42;4.10;99.90
22908;DHT22;11620;50.050;8.690;2022-11-21T06:47:26;4.10;99.90
22908;DHT22;11620;50.050;8.690;2022-11-21T06:50:11;4.00;99.90
22908;DHT22;11620;50.050;8.690;2022-11-21T06:52:59;3.90;99.90
22908;DHT22;11620;50.050;8.690;2022-11-21T06:55:44;3.80;99.90
22908;DHT22;11620;50.050;8.690;2022-11-21T06:58:29;3.80;99.90
22908;DHT22;11620;50.050;8.690;2022-11-21T07:01:14;3.90;99.90
22908;DHT22;11620;50.050;8.690;2022-11-21T07:03:58;3.90;99.90
22908;DHT22;11620;50.050;8.690;2022-11-21T07:06:43;3.80;99.90
22908;DHT22;11620;50.050;8.690;2022-11-21T07:09:27;3.80;99.90
22908;DHT22;11620;50.050;8.690;2022-11-21T07:12:12;3.80;99.90
22908;DHT22;11620;50.050;8.690;2022-11-21T07:15:16;3.90;99.90
22908;DHT22;11620;50.050;8.690;2022-11-21T07:18:01;3.90;99.90
22908;DHT22;11620;50.050;8.690;2022-11-21T07:20:46;4.00;99.90
22908;DHT22;11620;50.050;8.690;2022-11-21T07:23:31;4.00;99.90
22908;DHT22;11620;50.050;8.690;2022-11-21T07:26:16;4.10;99.90
22908;DHT22;11620;50.050;8.690;2022-11-21T07:29:01;4.10;99.90
22908;DHT22;11620;50.050;8.690;2022-11-21T07:31:45;4.10;99.90
22908;DHT22;11620;50.050;8.690;2022-11-21T07:34:30;4.10;99.90
22908;DHT22;11620;50.050;8.690;2022-11-21T07:37:14;4.00;99.90
22908;DHT22;11620;50.050;8.690;2022-11-21T07:39:59;4.10;99.90
22908;DHT22;11620;50.050;8.690;2022-11-21T07:42:44;4.30;99.90
22908;DHT22;11620;50.050;8.690;2022-11-21T07:45:28;4.40;99.90
22908;DHT22;11620;50.050;8.690;2022-11-21T07:48:13;4.50;99.90
22908;DHT22;11620;50.050;8.690;2022-11-21T07:50:57;4.60;99.90
22908;DHT22;11620;50.050;8.690;2022-11-21T07:53:42;4.60;99.90
22908;DHT22;11620;50.050;8.690;2022-11-21T07:56:26;4.70;99.90
22908;DHT22;11620;50.050;8.690;2022-11-21T07:59:10;4.60;99.90
22908;DHT22;11620;50.050;8.690;2022-11-21T08:01:55;4.60;99.90
22908;DHT22;11620;50.050;8.690;2022-11-21T08:04:40;4.60;99.90
22908;DHT22;11620;50.050;8.690;2022-11-21T08:07:24;4.40;99.90
22908;DHT22;11620;50.050;8.690;2022-11-21T08:10:09;4.50;99.90
22908;DHT22;11620;50.050;8.690;2022-11-21T08:12:53;4.60;99.90
22908;DHT22;11620;50.050;8.690;2022-11-21T08:15:38;4.50;99.90
22908;DHT22;11620;50.050;8.690;2022-11-21T08:18:23;4.50;99.90
22908;DHT22;11620;50.050;8.690;2022-11-21T08:21:07;4.60;99.90
22908;DHT22;11620;50.050;8.690;2022-11-21T08:23:53;4.70;99.90
22908;DHT22;11620;50.050;8.690;2022-11-21T08:26:37;5.10;99.90
22908;DHT22;11620;50.050;8.690;2022-11-21T08:29:22;5.60;99.90
22908;DHT22;11620;50.050;8.690;2022-11-21T08:32:07;5.80;99.90
22908;DHT22;11620;50.050;8.690;2022-11-21T08:34:51;5.90;99.90
22908;DHT22;11620;50.050;8.690;2022-11-21T08:37:36;5.90;99.90
22908;DHT22;11620;50.050;8.690;2022-11-21T08:40:20;5.80;99.90
22908;DHT22;11620;50.050;8.690;2022-11-21T08:43:07;5.80;99.90
22908;DHT22;11620;50.050;8.690;2022-11-21T08:45:52;5.80;99.90
22908;DHT22;11620;50.050;8.690;2022-11-21T08:48:38;5.50;99.90
22908;DHT22;11620;50.050;8.690;2022-11-21T08:51:22;5.60;99.90
22908;DHT22;11620;50.050;8.690;2022-11-21T08:54:08;5.60;99.90
22908;DHT22;11620;50.050;8.690;2022-11-21T08:56:52;5.70;99.90
22908;DHT22;11620;50.050;8.690;2022-11-21T08:59:37;5.60;99.90
22908;DHT22;11620;50.050;8.690;2022-11-21T09:02:22;5.60;99.90
22908;DHT22;11620;50.050;8.690;2022-11-21T09:05:07;5.80;99.90
22908;DHT22;11620;50.050;8.690;2022-11-21T09:07:56;5.90;99.90
22908;DHT22;11620;50.050;8.690;2022-11-21T09:10:41;6.10;99.90
22908;DHT22;11620;50.050;8.690;2022-11-21T09:13:26;5.90;99.90
22908;DHT22;11620;50.050;8.690;2022-11-21T09:16:11;5.70;99.90
22908;DHT22;11620;50.050;8.690;2022-11-21T09:19:14;5.70;99.90
22908;DHT22;11620;50.050;8.690;2022-11-21T09:21:59;5.80;99.90
22908;DHT22;11620;50.050;8.690;2022-11-21T09:24:43;5.60;99.90
22908;DHT22;11620;50.050;8.690;2022-11-21T09:27:29;5.50;99.90
22908;DHT22;11620;50.050;8.690;2022-11-21T09:30:15;5.40;99.90
22908;DHT22;11620;50.050;8.690;2022-11-21T09:33:08;5.40;99.90
22908;DHT22;11620;50.050;8.690;2022-11-21T09:35:53;5.50;99.90
22908;DHT22;11620;50.050;8.690;2022-11-21T09:38:37;5.50;99.90
22908;DHT22;11620;50.050;8.690;2022-11-21T09:41:42;5.70;99.90
22908;DHT22;11620;50.050;8.690;2022-11-21T09:45:15;6.00;99.90
22908;DHT22;11620;50.050;8.690;2022-11-21T09:48:09;6.20;99.90
22908;DHT22;11620;50.050;8.690;2022-11-21T09:50:58;6.20;99.90
22908;DHT22;11620;50.050;8.690;2022-11-21T09:53:56;6.10;99.90
22908;DHT22;11620;50.050;8.690;2022-11-21T09:56:43;6.30;99.90
22908;DHT22;11620;50.050;8.690;2022-11-21T09:59:36;6.40;99.90
22908;DHT22;11620;50.050;8.690;2022-11-21T10:02:23;6.50;99.90
22908;DHT22;11620;50.050;8.690;2022-11-21T10:05:12;6.60;99.90
22908;DHT22;11620;50.050;8.690;2022-11-21T10:08:03;6.70;99.90
22908;DHT22;11620;50.050;8.690;2022-11-21T10:10:59;6.70;99.90
22908;DHT22;11620;50.050;8.690;2022-11-21T10:13:56;6.60;99.90
22908;DHT22;11620;50.050;8.690;2022-11-21T10:16:53;6.60;99.90
22908;DHT22;11620;50.050;8.690;2022-11-21T10:23:11;6.10;99.90
22908;DHT22;11620;50.050;8.690;2022-11-21T10:29:18;6.10;99.90
22908;DHT22;11620;50.050;8.690;2022-11-21T10:32:17;6.50;99.90
22908;DHT22;11620;50.050;8.690;2022-11-21T10:35:50;7.60;99.90
22908;DHT22;11620;50.050;8.690;2022-11-21T10:38:39;8.40;99.90
22908;DHT22;11620;50.050;8.690;2022-11-21T10:44:25;8.60;99.90
22908;DHT22;11620;50.050;8.690;2022-11-21T10:47:34;8.40;99.90
22908;DHT22;11620;50.050;8.690;2022-11-21T10:53:29;7.70;99.90
22908;DHT22;11620;50.050;8.690;2022-11-21T10:56:35;7.60;99.90
22908;DHT22;11620;50.050;8.690;2022-11-21T10:59:23;7.60;99.90
22908;DHT22;11620;50.050;8.690;2022-11-21T11:10:59;7.80;99.90
22908;DHT22;11620;50.050;8.690;2022-11-21T11:16:43;7.40;99.90
22908;DHT22;11620;50.050;8.690;2022-11-21T11:19:28;7.30;99.90
22908;DHT22;11620;50.050;8.690;2022-11-21T11:22:29;7.20;99.90
22908;DHT22;11620;50.050;8.690;2022-11-21T11:25:14;7.10;99.90
22908;DHT22;11620;50.050;8.690;2022-11-21T11:28:05;7.00;99.90
22908;DHT22;11620;50.050;8.690;2022-11-21T11:30:52;6.80;99.90
22908;DHT22;11620;50.050;8.690;2022-11-21T11:33:39;6.90;99.90
22908;DHT22;11620;50.050;8.690;2022-11-21T11:36:40;6.90;99.90
22908;DHT22;11620;50.050;8.690;2022-11-21T11:46:38;7.10;99.90
22908;DHT22;11620;50.050;8.690;2022-11-21T11:56:23;8.20;99.90
22908;DHT22;11620;50.050;8.690;2022-11-21T11:59:36;8.00;99.90
22908;DHT22;11620;50.050;8.690;2022-11-21T12:02:40;8.10;99.90
22908;DHT22;11620;50.050;8.690;2022-11-21T12:05:29;7.70;99.90
22908;DHT22;11620;50.050;8.690;2022-11-21T12:08:39;7.40;99.90
22908;DHT22;11620;50.050;8.690;2022-11-21T12:11:36;7.00;99.90
22908;DHT22;11620;50.050;8.690;2022-11-21T12:21:14;7.60;99.90
22908;DHT22;11620;50.050;8.690;2022-11-21T12:24:02;8.20;99.90
22908;DHT22;11620;50.050;8.690;2022-11-21T12:33:21;9.80;99.90
22908;DHT22;11620;50.050;8.690;2022-11-21T12:45:36;9.80;99.90
22908;DHT22;11620;50.050;8.690;2022-11-21T13:01:07;9.60;99.90
22908;DHT22;11620;50.050;8.690;2022-11-21T13:06:43;9.50;99.90
22908;DHT22;11620;50.050;8.690;2022-11-21T13:09:39;9.40;99.90
22908;DHT22;11620;50.050;8.690;2022-11-21T13:12:44;9.40;99.90
22908;DHT22;11620;50.050;8.690;2022-11-21T13:15:41;9.00;99.90
22908;DHT22;11620;50.050;8.690;2022-11-21T13:18:32;8.70;99.90
22908;DHT22;11620;50.050;8.690;2022-11-21T13:27:34;8.50;99.90
22908;DHT22;11620;50.050;8.690;2022-11-21T13:30:21;9.00;99.90
22908;DHT22;11620;50.050;8.690;2022-11-21T13:33:08;9.00;99.90
22908;DHT22;11620;50.050;8.690;2022-11-21T13:35:54;8.90;99.90
22908;DHT22;11620;50.050;8.690;2022-11-21T13:44:39;8.30;99.90
22908;DHT22;11620;50.050;8.690;2022-11-21T13:59:59;7.80;99.90
22908;DHT22;11620;50.050;8.690;2022-11-21T14:06:03;7.70;99.90
22908;DHT22;11620;50.050;8.690;2022-11-21T14:12:20;7.90;99.90
22908;DHT22;11620;50.050;8.690;2022-11-21T14:17:53;8.10;99.90
22908;DHT22;11620;50.050;8.690;2022-11-21T14:20:49;8.10;99.90
22908;DHT22;11620;50.050;8.690;2022-11-21T14:23:34;8.20;99.90
22908;DHT22;11620;50.050;8.690;2022-11-21T14:26:27;8.30;99.90
22908;DHT22;11620;50.050;8.690;2022-11-21T14:29:36;8.50;99.90
22908;DHT22;11620;50.050;8.690;2022-11-21T14:32:28;8.60;99.90
22908;DHT22;11620;50.050;8.690;2022-11-21T14:35:23;8.50;99.90
22908;DHT22;11620;50.050;8.690;2022-11-21T14:38:07;8.40;99.90
22908;DHT22;11620;50.050;8.690;2022-11-21T14:41:22;8.20;99.90
22908;DHT22;11620;50.050;8.690;2022-11-21T14:47:04;8.00;99.90
22908;DHT22;11620;50.050;8.690;2022-11-21T14:49:53;8.00;99.90
22908;DHT22;11620;50.050;8.690;2022-11-21T14:52:38;8.00;99.90
22908;DHT22;11620;50.050;8.690;2022-11-21T14:55:32;8.00;99.90
22908;DHT22;11620;50.050;8.690;2022-11-21T14:58:18;7.90;99.90
22908;DHT22;11620;50.050;8.690;2022-11-21T15:01:19;7.90;99.90
22908;DHT22;11620;50.050;8.690;2022-11-21T15:04:06;7.90;99.90
22908;DHT22;11620;50.050;8.690;2022-11-21T15:06:51;8.00;99.90
22908;DHT22;11620;50.050;8.690;2022-11-21T15:09:36;8.00;99.90
22908;DHT22;11620;50.050;8.690;2022-11-21T15:12:35;8.00;99.90
22908;DHT22;11620;50.050;8.690;2022-11-21T15:15:41;7.90;99.90
22908;DHT22;11620;50.050;8.690;2022-11-21T15:18:28;7.70;99.90
22908;DHT22;11620;50.050;8.690;2022-11-21T15:21:14;7.50;99.90
22908;DHT22;11620;50.050;8.690;2022-11-21T15:24:18;7.50;99.90
22908;DHT22;11620;50.050;8.690;2022-11-21T15:33:12;7.20;99.90
22908;DHT22;11620;50.050;8.690;2022-11-21T15:36:11;7.20;99.90
22908;DHT22;11620;50.050;8.690;2022-11-21T15:39:17;7.00;99.90
22908;DHT22;11620;50.050;8.690;2022-11-21T15:45:24;6.70;99.90
22908;DHT22;11620;50.050;8.690;2022-11-21T15:48:11;6.70;99.90
22908;DHT22;11620;50.050;8.690;2022-11-21T15:50:58;6.60;99.90
22908;DHT22;11620;50.050;8.690;2022-11-21T15:53:44;6.50;99.90
22908;DHT22;11620;50.050;8.690;2022-11-21T15:56:31;6.50;99.90
22908;DHT22;11620;50.050;8.690;2022-11-21T15:59:17;6.30;99.90
22908;DHT22;11620;50.050;8.690;2022-11-21T16:02:11;6.20;99.90
22908;DHT22;11620;50.050;8.690;2022-11-21T16:04:58;6.10;99.90
22908;DHT22;11620;50.050;8.690;2022-11-21T16:07:44;6.20;99.90
22908;DHT22;11620;50.050;8.690;2022-11-21T16:10:31;6.10;99.90
22908;DHT22;11620;50.050;8.690;2022-11-21T16:13:18;6.10;99.90
22908;DHT22;11620;50.050;8.690;2022-11-21T16:16:04;6.10;99.90
22908;DHT22;11620;50.050;8.690;2022-11-21T16:18:50;6.00;99.90
22908;DHT22;11620;50.050;8.690;2022-11-21T16:21:37;6.00;99.90
22908;DHT22;11620;50.050;8.690;2022-11-21T16:24:23;5.90;99.90
22908;DHT22;11620;50.050;8.690;2022-11-21T16:27:10;5.90;99.90
22908;DHT22;11620;50.050;8.690;2022-11-21T16:29:56;5.80;99.90
22908;DHT22;11620;50.050;8.690;2022-11-21T16:32:42;5.70;99.90
22908;DHT22;11620;50.050;8.690;2022-11-21T16:35:29;5.70;99.90
22908;DHT22;11620;50.050;8.690;2022-11-21T16:38:15;5.60;99.90
22908;DHT22;11620;50.050;8.690;2022-11-21T16:41:02;5.60;99.90
22908;DHT22;11620;50.050;8.690;2022-11-21T16:43:52;5.60;99.90
22908;DHT22;11620;50.050;8.690;2022-11-21T16:46:43;5.50;99.90
22908;DHT22;11620;50.050;8.690;2022-11-21T16:49:30;5.50;99.90
22908;DHT22;11620;50.050;8.690;2022-11-21T16:52:17;5.50;99.90
22908;DHT22;11620;50.050;8.690;2022-11-21T16:55:03;5.50;99.90
22908;DHT22;11620;50.050;8.690;2022-11-21T16:57:50;5.50;99.90
22908;DHT22;11620;50.050;8.690;2022-11-21T17:00:36;5.40;99.90
22908;DHT22;11620;50.050;8.690;2022-11-21T17:03:24;5.40;99.90
22908;DHT22;11620;50.050;8.690;2022-11-21T17:06:12;5.40;99.90
22908;DHT22;11620;50.050;8.690;2022-11-21T17:08:59;5.30;99.90
22908;DHT22;11620;50.050;8.690;2022-11-21T17:11:47;5.30;99.90
22908;DHT22;11620;50.050;8.690;2022-11-21T17:14:33;5.10;99.90
22908;DHT22;11620;50.050;8.690;2022-11-21T17:17:19;5.00;99.90
22908;DHT22;11620;50.050;8.690;2022-11-21T17:20:07;5.00;99.90
22908;DHT22;11620;50.050;8.690;2022-11-21T17:22:54;5.00;99.90
22908;DHT22;11620;50.050;8.690;2022-11-21T17:25:40;5.00;99.90
22908;DHT22;11620;50.050;8.690;2022-11-21T17:28:27;5.00;99.90
22908;DHT22;11620;50.050;8.690;2022-11-21T17:31:14;4.90;99.90
22908;DHT22;11620;50.050;8.690;2022-11-21T17:34:01;5.00;99.90
22908;DHT22;11620;50.050;8.690;2022-11-21T17:36:47;5.00;99.90
22908;DHT22;11620;50.050;8.690;2022-11-21T17:39:34;4.80;99.90
22908;DHT22;11620;50.050;8.690;2022-11-21T17:42:20;4.90;99.90
22908;DHT22;11620;50.050;8.690;2022-11-21T17:45:07;4.80;99.90
22908;DHT22;11620;50.050;8.690;2022-11-21T17:47:53;4.80;99.90
22908;DHT22;11620;50.050;8.690;2022-11-21T17:50:40;4.80;99.90
22908;DHT22;11620;50.050;8.690;2022-11-21T17:53:26;4.90;99.90
22908;DHT22;11620;50.050;8.690;2022-11-21T17:56:15;4.90;99.90
22908;DHT22;11620;50.050;8.690;2022-11-21T17:59:03;4.90;99.90
22908;DHT22;11620;50.050;8.690;2022-11-21T18:01:50;4.80;99.90
22908;DHT22;11620;50.050;8.690;2022-11-21T18:04:36;4.80;99.90
22908;DHT22;11620;50.050;8.690;2022-11-21T18:07:24;4.80;99.90
22908;DHT22;11620;50.050;8.690;2022-11-21T18:10:10;4.90;99.90
22908;DHT22;11620;50.050;8.690;2022-11-21T18:12:56;4.90;99.90
22908;DHT22;11620;50.050;8.690;2022-11-21T18:15:42;4.90;99.90
22908;DHT22;11620;50.050;8.690;2022-11-21T18:18:33;4.80;99.90
22908;DHT22;11620;50.050;8.690;2022-11-21T18:21:21;4.80;99.90
22908;DHT22;11620;50.050;8.690;2022-11-21T18:24:08;4.80;99.90
22908;DHT22;11620;50.050;8.690;2022-11-21T18:26:54;4.70;99.90
22908;DHT22;11620;50.050;8.690;2022-11-21T18:29:40;4.70;99.90
22908;DHT22;11620;50.050;8.690;2022-11-21T18:32:26;4.70;99.90
22908;DHT22;11620;50.050;8.690;2022-11-21T18:35:14;4.80;99.90
22908;DHT22;11620;50.050;8.690;2022-11-21T18:38:00;4.80;99.90
22908;DHT22;11620;50.050;8.690;2022-11-21T18:40:47;4.80;99.90
22908;DHT22;11620;50.050;8.690;2022-11-21T18:43:33;4.80;99.90
22908;DHT22;11620;50.050;8.690;2022-11-21T18:46:21;4.80;99.90
22908;DHT22;11620;50.050;8.690;2022-11-21T18:49:07;4.90;99.90
22908;DHT22;11620;50.050;8.690;2022-11-21T18:51:54;5.00;99.90
22908;DHT22;11620;50.050;8.690;2022-11-21T18:54:40;5.00;99.90
22908;DHT22;11620;50.050;8.690;2022-11-21T18:57:27;5.00;99.90
22908;DHT22;11620;50.050;8.690;2022-11-21T19:00:13;5.00;99.90
22908;DHT22;11620;50.050;8.690;2022-11-21T19:03:00;5.00;99.90
22908;DHT22;11620;50.050;8.690;2022-11-21T19:05:46;5.00;99.90
22908;DHT22;11620;50.050;8.690;2022-11-21T19:08:33;4.90;99.90
22908;DHT22;11620;50.050;8.690;2022-11-21T19:11:20;5.00;99.90
22908;DHT22;11620;50.050;8.690;2022-11-21T19:14:07;5.10;99.90
22908;DHT22;11620;50.050;8.690;2022-11-21T19:16:53;5.20;99.90
22908;DHT22;11620;50.050;8.690;2022-11-21T19:19:40;5.20;99.90
22908;DHT22;11620;50.050;8.690;2022-11-21T19:22:26;5.20;99.90
22908;DHT22;11620;50.050;8.690;2022-11-21T19:25:12;5.10;99.90
22908;DHT22;11620;50.050;8.690;2022-11-21T19:27:59;5.00;99.90
22908;DHT22;11620;50.050;8.690;2022-11-21T19:30:45;5.00;99.90
22908;DHT22;11620;50.050;8.690;2022-11-21T19:33:32;4.80;99.90
22908;DHT22;11620;50.050;8.690;2022-11-21T19:36:21;4.80;99.90
22908;DHT22;11620;50.050;8.690;2022-11-21T19:39:08;4.80;99.90
22908;DHT22;11620;50.050;8.690;2022-11-21T19:41:54;4.80;99.90
22908;DHT22;11620;50.050;8.690;2022-11-21T19:44:40;4.70;99.90
22908;DHT22;11620;50.050;8.690;2022-11-21T19:47:27;4.70;99.90
22908;DHT22;11620;50.050;8.690;2022-11-21T19:50:13;4.80;99.90
22908;DHT22;11620;50.050;8.690;2022-11-21T19:53:00;4.80;99.90
22908;DHT22;11620;50.050;8.690;2022-11-21T19:55:46;4.70;99.90
22908;DHT22;11620;50.050;8.690;2022-11-21T19:58:33;4.60;99.90
22908;DHT22;11620;50.050;8.690;2022-11-21T20:01:27;4.60;99.90
22908;DHT22;11620;50.050;8.690;2022-11-21T20:04:14;4.60;99.90
22908;DHT22;11620;50.050;8.690;2022-11-21T20:07:00;4.60;99.90
22908;DHT22;11620;50.050;8.690;2022-11-21T20:09:46;4.60;99.90
22908;DHT22;11620;50.050;8.690;2022-11-21T20:12:34;4.60;99.90